Time;durP1;ratioP1;P1;durP2;ratioP2;P2;SDS_P1;SDS_P2;PMS_P1;PMS_P2;Temp;Humidity;BMP_temperature;BMP_pressure;BME280_temperature;BME280_humidity;BME280_pressure;Samples;Min_cycle;Max_cycle;Signal;HPM_P1;HPM_P2
2024/01/15 00:00:46;;;;;;;1.05;0.98;;;19.10;37.30;;;;;;8330417;28;20175;-50
2024/01/15 00:04:47;;;;;;;1.30;1.15;;;19.10;37.30;;;;;;8328692;28;20029;-49
2024/01/15 00:08:48;;;;;;;2.03;1.38;;;18.90;38.40;;;;;;8329926;28;20060;-49
2024/01/15 00:12:48;;;;;;;1.23;1.10;;;18.80;38.90;;;;;;8330015;28;20021;-50
2024/01/15 00:16:51;;;;;;;1.52;1.20;;;18.90;38.50;;;;;;8329968;28;20060;-49
2024/01/15 00:20:51;;;;;;;1.08;0.98;;;18.90;38.10;;;;;;8329741;28;20048;-50
2024/01/15 00:24:52;;;;;;;1.13;1.00;;;19.00;37.80;;;;;;8329548;28;20492;-50
2024/01/15 00:28:53;;;;;;;1.73;1.00;;;19.00;37.60;;;;;;8329414;28;20342;-50
2024/01/15 00:32:53;;;;;;;1.37;1.00;;;19.00;37.60;;;;;;8329652;28;20692;-49
2024/01/15 00:36:54;;;;;;;1.27;1.10;;;19.00;37.50;;;;;;8329277;28;20295;-49
2024/01/15 00:40:55;;;;;;;1.52;1.10;;;19.00;37.40;;;;;;8327885;28;20391;-49
2024/01/15 00:44:55;;;;;;;1.58;0.90;;;19.10;37.40;;;;;;8329217;28;20483;-49
2024/01/15 00:48:56;;;;;;;1.17;1.00;;;19.10;37.30;;;;;;8328855;28;20472;-50
2024/01/15 00:52:57;;;;;;;1.25;1.15;;;19.10;37.50;;;;;;8328980;28;20034;-48
2024/01/15 00:56:57;;;;;;;1.40;1.20;;;18.90;38.50;;;;;;8329156;28;20510;-46
2024/01/15 01:00:58;;;;;;;1.00;0.90;;;18.80;38.80;;;;;;8327352;28;20034;-48
2024/01/15 01:04:59;;;;;;;1.17;1.08;;;18.80;38.30;;;;;;8328504;28;20046;-47
2024/01/15 01:08:59;;;;;;;1.33;1.00;;;18.90;38.10;;;;;;8328108;28;20045;-47
2024/01/15 01:13:00;;;;;;;1.23;1.00;;;18.90;37.90;;;;;;8328486;28;20800;-49
2024/01/15 01:17:01;;;;;;;1.33;1.17;;;19.00;38.20;;;;;;8327465;28;20044;-48
2024/01/15 01:21:02;;;;;;;1.95;1.38;;;19.00;37.50;;;;;;8327980;28;20647;-48
2024/01/15 01:25:03;;;;;;;1.27;0.80;;;19.10;37.40;;;;;;8328102;28;20029;-48
2024/01/15 01:29:04;;;;;;;1.20;1.10;;;19.10;37.30;;;;;;8327545;28;20048;-48
2024/01/15 01:33:04;;;;;;;1.38;1.20;;;19.10;37.30;;;;;;8327690;28;20026;-47
2024/01/15 01:37:05;;;;;;;1.40;1.10;;;19.10;37.20;;;;;;8327702;28;20045;-48
2024/01/15 01:41:06;;;;;;;1.23;1.13;;;19.10;37.60;;;;;;8327328;28;20041;-47
2024/01/15 01:45:07;;;;;;;1.33;1.15;;;18.90;38.60;;;;;;8327309;28;20399;-48
2024/01/15 01:49:09;;;;;;;1.27;1.10;;;18.80;38.70;;;;;;8327168;28;20121;-48
2024/01/15 01:53:10;;;;;;;1.42;1.00;;;18.80;38.30;;;;;;8327281;28;20108;-46
2024/01/15 01:57:12;;;;;;;1.67;1.10;;;18.90;38.00;;;;;;8326882;28;20037;-49
2024/01/15 02:01:13;;;;;;;1.00;0.80;;;19.00;37.80;;;;;;8326998;28;20088;-52
2024/01/15 02:05:18;;;;;;;1.63;1.13;;;19.00;37.60;;;;;;8325613;28;20176;-50
2024/01/15 02:09:19;;;;;;;1.17;1.00;;;19.00;37.50;;;;;;8326383;28;20508;-50
2024/01/15 02:13:20;;;;;;;1.00;0.90;;;19.00;37.30;;;;;;8326865;28;20400;-49
2024/01/15 02:17:20;;;;;;;;;;;19.10;37.30;;;;;;8327214;28;20412;-49
2024/01/15 02:21:21;;;;;;;1.10;1.00;;;19.10;37.20;;;;;;8326541;28;20360;-51
2024/01/15 02:25:22;;;;;;;1.30;1.08;;;19.00;37.10;;;;;;8325544;28;20034;-50
2024/01/15 02:29:23;;;;;;;1.33;1.10;;;19.00;37.60;;;;;;8329500;28;20116;-49
2024/01/15 02:33:23;;;;;;;1.52;1.10;;;18.80;38.60;;;;;;8333189;28;20032;-49
2024/01/15 02:37:24;;;;;;;2.20;1.60;;;18.80;38.70;;;;;;8333186;28;20120;-48
2024/01/15 02:41:25;;;;;;;1.80;1.20;;;18.80;38.30;;;;;;8332845;28;20042;-51
2024/01/15 02:45:26;;;;;;;1.60;1.10;;;18.90;37.90;;;;;;8332985;28;20333;-48
2024/01/15 02:49:27;;;;;;;;;;;19.00;37.80;;;;;;8333356;28;20052;-49
2024/01/15 02:53:27;;;;;;;1.60;1.43;;;19.00;37.60;;;;;;8332729;28;19909;-50
2024/01/15 02:57:28;;;;;;;1.65;1.20;;;19.00;37.50;;;;;;8332480;28;20040;-49
2024/01/15 03:01:29;;;;;;;2.50;1.38;;;19.00;37.30;;;;;;8332495;28;20124;-49
2024/01/15 03:05:29;;;;;;;1.50;1.40;;;19.00;37.20;;;;;;8332073;28;20033;-49
2024/01/15 03:09:30;;;;;;;1.85;1.20;;;19.10;37.20;;;;;;8332198;28;20061;-48
2024/01/15 03:13:31;;;;;;;1.35;1.25;;;19.10;37.10;;;;;;8332199;28;20040;-49
2024/01/15 03:17:31;;;;;;;1.33;1.10;;;19.00;37.60;;;;;;8331919;28;20042;-50
2024/01/15 03:21:32;;;;;;;1.73;1.30;;;18.80;38.60;;;;;;8332039;28;20033;-48
2024/01/15 03:25:33;;;;;;;1.77;1.33;;;18.80;38.50;;;;;;8330252;28;20037;-50
2024/01/15 03:29:33;;;;;;;2.50;1.27;;;18.90;38.20;;;;;;8331161;28;20368;-49
2024/01/15 03:33:34;;;;;;;2.05;1.40;;;18.90;37.90;;;;;;8331606;28;20033;-50
2024/01/15 03:37:35;;;;;;;1.30;1.17;;;18.90;37.60;;;;;;8331153;28;20041;-49
2024/01/15 03:41:36;;;;;;;1.20;1.10;;;19.00;37.60;;;;;;8330249;28;20337;-49
2024/01/15 03:45:36;;;;;;;1.63;1.20;;;19.00;37.40;;;;;;8331086;28;20084;-48
2024/01/15 03:49:37;;;;;;;1.55;1.20;;;19.00;37.30;;;;;;8330835;28;20040;-48
2024/01/15 03:53:38;;;;;;;1.48;1.20;;;19.10;37.20;;;;;;8330914;28;20034;-49
2024/01/15 03:57:39;;;;;;;1.58;1.30;;;19.10;37.10;;;;;;8330631;28;20041;-48
2024/01/15 04:01:40;;;;;;;1.65;1.40;;;19.10;37.10;;;;;;8330564;28;20042;-49
2024/01/15 04:05:40;;;;;;;1.87;1.40;;;19.00;37.70;;;;;;8330518;28;20112;-50
2024/01/15 04:09:41;;;;;;;1.47;1.33;;;18.80;38.70;;;;;;8330342;28;20339;-48
2024/01/15 04:13:42;;;;;;;1.77;1.43;;;18.80;38.50;;;;;;8330081;28;20284;-51
2024/01/15 04:17:42;;;;;;;1.30;1.10;;;18.80;38.20;;;;;;8330117;28;20475;-49
2024/01/15 04:21:43;;;;;;;1.25;1.15;;;18.90;37.90;;;;;;8330008;28;20040;-48
2024/01/15 04:25:45;;;;;;;1.80;1.35;;;18.90;37.60;;;;;;8330482;28;20034;-47
2024/01/15 04:29:46;;;;;;;1.30;1.20;;;19.00;37.50;;;;;;8329404;28;20430;-47
2024/01/15 04:33:47;;;;;;;2.83;1.73;;;19.00;37.40;;;;;;8329584;28;20061;-48
2024/01/15 04:37:47;;;;;;;1.83;1.40;;;19.00;37.80;;;;;;8329508;28;20037;-48
2024/01/15 04:41:48;;;;;;;2.08;1.33;;;19.10;37.20;;;;;;8329275;28;20319;-49
2024/01/15 04:45:49;;;;;;;1.65;0.90;;;19.10;37.10;;;;;;8329140;28;20088;-47
2024/01/15 04:49:50;;;;;;;1.77;1.27;;;19.10;37.00;;;;;;8328849;28;20033;-47
2024/01/15 04:53:50;;;;;;;1.38;1.27;;;19.00;37.80;;;;;;8329163;28;20039;-48
2024/01/15 04:57:51;;;;;;;1.53;1.43;;;18.80;38.60;;;;;;8329012;28;20041;-47
2024/01/15 05:01:52;;;;;;;1.30;1.20;;;18.80;38.40;;;;;;8328560;28;20280;-46
2024/01/15 05:05:52;;;;;;;1.42;1.20;;;18.90;38.00;;;;;;8328305;28;20370;-46
2024/01/15 05:09:53;;;;;;;1.58;1.38;;;18.90;38.30;;;;;;8328320;28;20050;-49
2024/01/15 05:13:54;;;;;;;1.30;1.20;;;19.00;37.60;;;;;;8328025;28;20056;-48
2024/01/15 05:17:54;;;;;;;1.40;1.20;;;19.00;37.50;;;;;;8328070;28;20037;-46
2024/01/15 05:21:55;;;;;;;1.48;1.35;;;19.00;37.20;;;;;;8327964;28;20538;-47
2024/01/15 05:25:56;;;;;;;1.77;1.20;;;19.10;37.10;;;;;;8327940;28;20056;-48
2024/01/15 05:29:56;;;;;;;1.73;1.15;;;19.10;37.00;;;;;;8327464;28;20303;-48
2024/01/15 05:33:57;;;;;;;1.83;1.38;;;19.10;37.00;;;;;;8327745;28;20096;-51
2024/01/15 05:37:58;;;;;;;2.00;1.43;;;19.10;36.90;;;;;;8327747;28;20377;-49
2024/01/15 05:41:59;;;;;;;1.50;1.10;;;19.00;37.80;;;;;;8327369;28;20272;-49
2024/01/15 05:46:00;;;;;;;1.48;1.20;;;18.80;38.50;;;;;;8326015;28;20072;-47
2024/01/15 05:50:02;;;;;;;1.30;1.20;;;18.80;38.20;;;;;;8327324;28;20037;-49
2024/01/15 05:54:03;;;;;;;1.27;1.10;;;18.90;37.90;;;;;;8326918;28;20029;-50
2024/01/15 05:58:03;;;;;;;1.15;1.05;;;19.00;37.60;;;;;;8326791;28;20052;-47
2024/01/15 06:02:04;;;;;;;1.23;1.10;;;19.00;37.40;;;;;;8327147;28;20034;-49
2024/01/15 06:06:05;;;;;;;1.10;1.00;;;19.10;37.30;;;;;;8326305;28;20034;-47
2024/01/15 06:10:06;;;;;;;1.52;1.08;;;19.00;37.10;;;;;;8326420;28;20054;-48
2024/01/15 06:14:07;;;;;;;;;;;19.00;37.10;;;;;;8327272;28;20029;-47
2024/01/15 06:18:08;;;;;;;1.97;1.43;;;19.00;37.00;;;;;;8326641;28;19916;-47
2024/01/15 06:22:08;;;;;;;1.85;1.30;;;19.10;37.00;;;;;;8326584;28;20112;-47
2024/01/15 06:26:11;;;;;;;1.40;1.08;;;19.10;37.00;;;;;;8326381;28;20037;-46
2024/01/15 06:30:13;;;;;;;1.38;1.00;;;18.90;37.90;;;;;;8326204;28;20060;-48
2024/01/15 06:34:14;;;;;;;;;;;18.70;38.60;;;;;;8326948;28;20025;-47
2024/01/15 06:38:15;;;;;;;1.95;1.10;;;18.80;38.30;;;;;;8326501;28;19909;-47
2024/01/15 06:42:16;;;;;;;1.55;1.00;;;18.90;38.50;;;;;;8326216;28;20036;-51
2024/01/15 06:46:21;;;;;;;1.58;1.02;;;19.00;37.60;;;;;;8326309;28;20057;-49
2024/01/15 06:50:21;;;;;;;1.38;1.10;;;19.00;37.40;;;;;;8326100;28;20156;-52
2024/01/15 06:54:23;;;;;;;1.10;1.00;;;19.10;37.20;;;;;;8326008;28;20026;-50
2024/01/15 06:58:24;;;;;;;1.38;1.02;;;19.10;37.10;;;;;;8325842;28;20040;-49
2024/01/15 07:02:24;;;;;;;1.17;1.08;;;19.10;37.00;;;;;;8325001;28;20048;-51
2024/01/15 07:06:25;;;;;;;1.77;1.10;;;19.10;36.90;;;;;;8325978;28;20034;-49
2024/01/15 07:10:26;;;;;;;1.42;1.33;;;19.10;36.90;;;;;;8325805;28;20055;-48
2024/01/15 07:14:26;;;;;;;1.20;1.00;;;19.10;36.90;;;;;;8325802;28;20017;-49
2024/01/15 07:18:27;;;;;;;1.25;1.10;;;18.90;38.00;;;;;;8331401;28;20322;-50
2024/01/15 07:22:28;;;;;;;1.88;1.30;;;18.70;38.50;;;;;;8331773;28;20078;-50
2024/01/15 07:26:30;;;;;;;1.27;1.00;;;18.80;38.20;;;;;;8331637;28;20125;-52
2024/01/15 07:30:31;;;;;;;1.33;1.00;;;18.90;37.80;;;;;;8331287;28;20661;-49
2024/01/15 07:34:31;;;;;;;1.20;1.08;;;19.00;37.50;;;;;;8331590;28;20030;-52
2024/01/15 07:38:32;;;;;;;1.60;0.95;;;19.00;37.30;;;;;;8331403;28;20044;-49
2024/01/15 07:42:34;;;;;;;1.85;1.30;;;19.00;37.10;;;;;;8331029;28;20029;-50
2024/01/15 07:46:35;;;;;;;1.48;1.10;;;19.10;37.10;;;;;;8331554;28;20675;-52
2024/01/15 07:50:35;;;;;;;0.98;0.98;;;19.10;37.00;;;;;;8330914;28;20123;-51
2024/01/15 07:54:36;;;;;;;1.27;1.00;;;19.10;36.90;;;;;;8331112;28;20039;-51
2024/01/15 07:58:37;;;;;;;1.13;1.10;;;19.10;36.80;;;;;;8330912;28;20033;-50
2024/01/15 08:02:38;;;;;;;1.90;1.08;;;19.10;36.80;;;;;;8330739;28;20041;-50
2024/01/15 08:06:39;;;;;;;;;;;18.90;37.90;;;;;;8330837;28;20041;-50
2024/01/15 08:10:39;;;;;;;1.57;1.00;;;18.70;38.50;;;;;;8330164;28;20000;-51
2024/01/15 08:14:40;;;;;;;1.20;1.10;;;18.80;38.10;;;;;;8330239;28;20056;-49
2024/01/15 08:18:43;;;;;;;1.42;1.00;;;18.90;37.70;;;;;;8330261;28;20038;-53
2024/01/15 08:22:44;;;;;;;1.05;0.98;;;19.00;37.50;;;;;;8330456;28;20036;-51
2024/01/15 08:26:45;;;;;;;1.05;0.95;;;19.00;37.30;;;;;;8329791;28;20033;-53
2024/01/15 08:30:46;;;;;;;1.02;0.93;;;19.10;37.20;;;;;;8330053;28;20032;-50
2024/01/15 08:34:48;;;;;;;1.48;1.00;;;19.10;37.00;;;;;;8330187;28;20037;-50
2024/01/15 08:38:49;;;;;;;1.08;1.00;;;19.10;36.90;;;;;;8329571;28;20045;-52
2024/01/15 08:42:50;;;;;;;0.90;0.80;;;19.10;36.80;;;;;;8329329;28;20067;-51
2024/01/15 08:46:51;;;;;;;1.35;1.08;;;19.10;36.80;;;;;;8329233;28;20029;-50
2024/01/15 08:50:51;;;;;;;1.00;0.90;;;19.10;36.90;;;;;;8329248;28;20037;-50
2024/01/15 08:54:52;;;;;;;1.17;0.80;;;18.90;38.00;;;;;;8328855;28;20033;-51
2024/01/15 08:58:53;;;;;;;1.42;1.33;;;18.80;38.50;;;;;;8328744;28;20084;-49
2024/01/15 09:02:53;;;;;;;1.67;0.98;;;18.80;38.00;;;;;;8328987;28;20395;-49
2024/01/15 09:06:54;;;;;;;1.45;1.10;;;18.90;37.60;;;;;;8328346;28;20480;-52
2024/01/15 09:10:55;;;;;;;1.13;0.90;;;19.00;37.50;;;;;;8328250;28;20044;-50
2024/01/15 09:14:55;;;;;;;1.00;0.80;;;19.00;37.30;;;;;;8327109;28;20037;-48
2024/01/15 09:18:57;;;;;;;1.77;1.25;;;19.10;37.20;;;;;;8328191;28;20630;-52
2024/01/15 09:22:58;;;;;;;1.30;1.00;;;19.00;37.00;;;;;;8326928;28;20040;-49
2024/01/15 09:26:58;;;;;;;1.38;1.10;;;19.10;36.90;;;;;;8327712;28;20041;-49
2024/01/15 09:30:59;;;;;;;1.30;1.20;;;19.10;36.90;;;;;;8327953;28;20022;-49
2024/01/15 09:35:00;;;;;;;1.30;0.90;;;19.10;36.80;;;;;;8327846;28;20071;-51
2024/01/15 09:39:00;;;;;;;1.40;1.20;;;19.10;37.00;;;;;;8326697;28;20044;-50
2024/01/15 09:43:02;;;;;;;2.03;1.00;;;18.80;38.10;;;;;;8327619;28;20116;-51
2024/01/15 09:47:04;;;;;;;1.33;1.08;;;18.70;39.00;;;;;;8327280;28;20041;-52
2024/01/15 09:51:07;;;;;;;1.02;0.95;;;18.80;37.90;;;;;;8326983;28;20398;-50
2024/01/15 09:55:09;;;;;;;1.92;1.02;;;18.90;37.60;;;;;;8327119;28;20068;-49
2024/01/15 09:59:10;;;;;;;1.00;0.90;;;19.00;37.40;;;;;;8326979;28;20083;-49
2024/01/15 10:03:11;;;;;;;1.25;0.90;;;19.00;37.20;;;;;;8327053;28;20072;-49
2024/01/15 10:07:19;;;;;;;1.33;1.17;;;19.00;37.00;;;;;;8326733;28;20046;-52
2024/01/15 10:11:20;;;;;;;1.10;0.85;;;19.10;37.00;;;;;;8326503;28;20045;-49
2024/01/15 10:15:28;;;;;;;1.55;1.20;;;19.10;36.90;;;;;;8326690;28;20053;-50
2024/01/15 10:19:31;;;;;;;1.83;1.17;;;19.10;36.80;;;;;;8325407;28;20510;-50
2024/01/15 10:23:36;;;;;;;1.05;0.82;;;19.10;36.70;;;;;;8326556;28;20040;-51
2024/01/15 10:27:36;;;;;;;1.92;1.00;;;19.00;37.20;;;;;;8326580;28;20048;-49
2024/01/15 10:31:38;;;;;;;1.60;1.10;;;18.80;38.20;;;;;;8326417;28;20035;-50
2024/01/15 10:35:38;;;;;;;;;;;18.70;38.30;;;;;;8326760;28;20809;-51
2024/01/15 10:39:39;;;;;;;1.10;0.93;;;18.90;37.90;;;;;;8326190;28;20333;-49
2024/01/15 10:43:41;;;;;;;1.27;1.15;;;18.90;37.60;;;;;;8326636;28;20029;-50
2024/01/15 10:47:42;;;;;;;0.70;0.70;;;19.00;37.90;;;;;;8326338;28;20073;-51
2024/01/15 10:51:43;;;;;;;1.35;1.10;;;19.00;37.20;;;;;;8330978;28;20044;-49
2024/01/15 10:55:48;;;;;;;0.90;0.85;;;19.00;37.10;;;;;;8332583;28;20112;-51
2024/01/15 10:59:48;;;;;;;1.00;0.80;;;19.10;37.00;;;;;;8332353;28;20029;-51
2024/01/15 11:03:50;;;;;;;0.83;0.73;;;19.10;37.10;;;;;;8332462;28;20502;-49
2024/01/15 11:07:54;;;;;;;1.17;0.93;;;19.00;36.80;;;;;;8332079;28;20726;-48
2024/01/15 11:12:13;;;;;;;1.00;0.77;;;19.10;36.70;;;;;;8332154;28;20038;-50
2024/01/15 11:16:17;;;;;;;2.03;1.00;;;19.00;37.50;;;;;;8331910;28;20030;-51
2024/01/15 11:20:18;;;;;;;0.80;0.80;;;18.80;38.20;;;;;;8331666;28;20479;-51
2024/01/15 11:24:41;;;;;;;1.05;0.80;;;18.80;38.20;;;;;;8331799;28;20564;-51
2024/01/15 11:28:51;;;;;;;1.20;1.00;;;18.90;37.80;;;;;;8331433;28;20030;-50
2024/01/15 11:32:52;;;;;;;1.23;1.05;;;18.90;37.50;;;;;;8330169;28;20065;-49
2024/01/15 11:36:52;;;;;;;0.80;0.80;;;19.00;37.30;;;;;;8331438;28;20037;-51
2024/01/15 11:40:53;;;;;;;1.17;0.97;;;19.00;37.10;;;;;;8331140;28;20041;-51
2024/01/15 11:44:54;;;;;;;1.25;0.93;;;19.10;37.00;;;;;;8330958;28;20362;-51
2024/01/15 11:49:03;;;;;;;1.38;0.70;;;19.10;36.90;;;;;;8329644;28;20025;-52
2024/01/15 11:53:20;;;;;;;1.40;1.00;;;19.00;36.80;;;;;;8330948;28;20033;-51
2024/01/15 11:57:41;;;;;;;2.35;0.95;;;19.10;36.80;;;;;;8330636;28;20558;-51
2024/01/15 12:01:41;;;;;;;1.20;0.88;;;19.10;36.70;;;;;;8329883;28;20029;-52
2024/01/15 12:05:42;;;;;;;1.52;1.00;;;18.90;37.90;;;;;;8330359;28;20045;-51
2024/01/15 12:09:44;;;;;;;1.85;1.13;;;18.70;38.40;;;;;;8330077;28;20049;-51
2024/01/15 12:13:45;;;;;;;1.38;1.00;;;18.80;38.00;;;;;;8330896;28;20114;-51
2024/01/15 12:17:47;;;;;;;1.27;1.00;;;18.90;37.60;;;;;;8330102;28;20033;-50
2024/01/15 12:21:48;;;;;;;1.55;1.00;;;19.00;37.40;;;;;;8329916;28;20026;-49
2024/01/15 12:25:49;;;;;;;1.05;0.95;;;19.00;37.20;;;;;;8329923;28;20033;-52
2024/01/15 12:29:50;;;;;;;0.98;0.80;;;19.00;37.00;;;;;;8329435;28;20038;-50
2024/01/15 12:33:50;;;;;;;0.88;0.88;;;19.10;36.90;;;;;;8329695;28;20075;-52
2024/01/15 12:37:51;;;;;;;0.82;0.82;;;19.00;36.90;;;;;;8329466;28;20033;-50
2024/01/15 12:41:52;;;;;;;1.58;0.90;;;19.10;36.80;;;;;;8329402;28;20055;-51
2024/01/15 12:45:52;;;;;;;1.13;0.98;;;19.10;36.80;;;;;;8329197;28;20046;-50
2024/01/15 12:49:54;;;;;;;1.17;1.00;;;19.00;36.80;;;;;;8328901;28;20037;-51
2024/01/15 12:53:55;;;;;;;0.98;0.90;;;18.90;38.00;;;;;;8328813;28;20036;-50
2024/01/15 12:57:55;;;;;;;1.10;1.00;;;18.70;38.30;;;;;;8329165;28;20059;-48
2024/01/15 13:01:56;;;;;;;1.13;0.90;;;18.80;37.90;;;;;;8328642;28;20033;-48
2024/01/15 13:05:57;;;;;;;1.27;1.17;;;18.90;37.60;;;;;;8328424;28;20033;-50
2024/01/15 13:09:57;;;;;;;1.75;1.30;;;18.90;37.30;;;;;;8328320;28;20080;-53
2024/01/15 13:13:58;;;;;;;1.23;1.08;;;19.00;37.20;;;;;;8327297;28;20083;-49
2024/01/15 13:17:59;;;;;;;1.20;1.10;;;19.00;37.00;;;;;;8328127;28;20033;-48
2024/01/15 13:22:00;;;;;;;1.45;1.08;;;19.00;36.90;;;;;;8328366;28;20044;-51
2024/01/15 13:26:00;;;;;;;1.08;0.80;;;19.10;36.90;;;;;;8327776;28;20070;-52
2024/01/15 13:30:01;;;;;;;1.17;0.80;;;19.10;36.80;;;;;;8327783;28;20113;-50
2024/01/15 13:34:03;;;;;;;1.00;0.90;;;19.10;36.70;;;;;;8328051;28;20146;-49
2024/01/15 13:38:03;;;;;;;1.35;0.85;;;19.10;36.80;;;;;;8327628;28;20540;-49
2024/01/15 13:42:04;;;;;;;1.08;0.90;;;18.90;38.00;;;;;;8327476;28;20422;-49
2024/01/15 13:46:05;;;;;;;2.15;1.25;;;18.70;38.30;;;;;;8328516;28;20387;-48
2024/01/15 13:50:07;;;;;;;0.90;0.90;;;18.90;37.90;;;;;;8327352;28;20030;-48
2024/01/15 13:54:08;;;;;;;1.08;0.98;;;18.90;37.60;;;;;;8327485;28;20115;-51
2024/01/15 13:58:08;;;;;;;1.10;0.85;;;19.00;37.30;;;;;;8326058;28;20029;-50
2024/01/15 14:02:09;;;;;;;1.10;1.00;;;19.00;37.10;;;;;;8327005;28;20025;-50
2024/01/15 14:06:10;;;;;;;1.60;1.27;;;19.00;37.00;;;;;;8326383;28;20040;-52
2024/01/15 14:10:11;;;;;;;1.25;1.00;;;19.10;36.90;;;;;;8326616;28;20060;-49
2024/01/15 14:14:12;;;;;;;1.02;0.98;;;19.00;37.00;;;;;;8326825;28;20511;-51
2024/01/15 14:18:12;;;;;;;1.00;0.90;;;19.10;36.70;;;;;;8327290;28;20030;-48
2024/01/15 14:22:13;;;;;;;0.98;0.90;;;19.10;36.70;;;;;;8342794;28;20116;-51
2024/01/15 14:26:14;;;;;;;1.20;0.95;;;19.10;37.00;;;;;;8330682;28;20033;-51
2024/01/15 14:30:15;;;;;;;1.07;0.63;;;18.90;38.00;;;;;;8333511;28;20061;-49
2024/01/15 14:34:18;;;;;;;1.00;0.90;;;18.80;38.20;;;;;;8333431;28;20284;-49
2024/01/15 14:38:19;;;;;;;0.90;0.80;;;18.90;37.80;;;;;;8332596;28;20111;-49
2024/01/15 14:42:20;;;;;;;0.80;0.80;;;18.90;37.50;;;;;;8333068;28;20033;-48
2024/01/15 14:46:21;;;;;;;1.17;0.98;;;19.00;37.30;;;;;;8333072;28;20040;-52
2024/01/15 14:50:21;;;;;;;1.00;0.88;;;19.00;37.10;;;;;;8332903;28;20071;-52
2024/01/15 14:54:22;;;;;;;1.00;0.90;;;19.10;37.00;;;;;;8332905;28;20045;-49
2024/01/15 14:58:23;;;;;;;1.10;0.90;;;19.10;36.90;;;;;;8332642;28;20649;-49
2024/01/15 15:02:28;;;;;;;1.02;0.90;;;19.10;36.70;;;;;;8332619;28;20042;-49
2024/01/15 15:06:29;;;;;;;1.50;1.33;;;19.10;36.60;;;;;;8332806;28;20482;-50
2024/01/15 15:10:29;;;;;;;1.23;1.13;;;19.10;36.60;;;;;;8332021;28;20099;-49
2024/01/15 15:14:31;;;;;;;1.05;0.90;;;19.10;37.00;;;;;;8332238;28;20038;-50
2024/01/15 15:18:32;;;;;;;1.13;0.90;;;18.80;38.00;;;;;;8331922;28;20044;-51
2024/01/15 15:22:33;;;;;;;1.85;1.08;;;18.80;38.20;;;;;;8331927;28;20108;-50
2024/01/15 15:26:33;;;;;;;1.00;0.90;;;18.90;37.80;;;;;;8331892;28;20117;-51
2024/01/15 15:30:34;;;;;;;1.13;0.80;;;18.90;37.40;;;;;;8331612;28;20037;-50
2024/01/15 15:34:35;;;;;;;1.00;0.85;;;19.00;37.20;;;;;;8331490;28;20284;-49
2024/01/15 15:38:35;;;;;;;0.80;0.80;;;19.00;37.00;;;;;;8330502;28;20481;-51
2024/01/15 15:42:36;;;;;;;1.15;0.80;;;19.10;37.00;;;;;;8329899;28;20045;-50
2024/01/15 15:46:37;;;;;;;1.05;0.88;;;19.10;36.80;;;;;;8331209;28;20033;-49
2024/01/15 15:50:38;;;;;;;1.08;0.98;;;19.10;36.70;;;;;;8331023;28;20041;-49
2024/01/15 15:54:39;;;;;;;1.02;0.80;;;19.10;36.70;;;;;;8330878;28;20029;-51
2024/01/15 15:58:40;;;;;;;1.30;1.07;;;19.10;36.70;;;;;;8330883;28;20034;-49
2024/01/15 16:02:40;;;;;;;1.10;1.00;;;19.00;37.10;;;;;;8330845;28;20279;-49
2024/01/15 16:06:42;;;;;;;1.17;0.88;;;18.80;38.00;;;;;;8330660;28;20033;-52
2024/01/15 16:10:43;;;;;;;0.80;0.70;;;18.80;38.10;;;;;;8330161;28;20068;-49
2024/01/15 16:14:44;;;;;;;;;;;18.90;37.70;;;;;;8330603;28;20098;-49
2024/01/15 16:18:45;;;;;;;0.97;0.90;;;18.90;37.40;;;;;;8330092;28;19905;-51
2024/01/15 16:22:46;;;;;;;1.05;0.82;;;19.00;37.20;;;;;;8330189;28;20041;-50
2024/01/15 16:26:47;;;;;;;1.10;0.65;;;19.00;37.00;;;;;;8329744;28;20045;-51
2024/01/15 16:30:47;;;;;;;1.25;1.00;;;19.00;36.90;;;;;;8328322;28;20063;-52
2024/01/15 16:34:48;;;;;;;0.85;0.80;;;19.00;36.80;;;;;;8329612;28;20451;-50
2024/01/15 16:38:49;;;;;;;0.73;0.73;;;19.00;36.80;;;;;;8330396;28;20108;-51
2024/01/15 16:42:49;;;;;;;0.70;0.70;;;19.00;36.70;;;;;;8329502;28;20045;-51
2024/01/15 16:46:50;;;;;;;0.93;0.88;;;19.00;36.60;;;;;;8329250;28;20038;-51
2024/01/15 16:50:53;;;;;;;0.75;0.73;;;18.90;37.30;;;;;;8329144;28;20042;-51
2024/01/15 16:54:53;;;;;;;0.98;0.68;;;18.80;38.20;;;;;;8328984;28;20521;-50
2024/01/15 16:58:54;;;;;;;0.97;0.77;;;18.80;38.20;;;;;;8329231;28;20451;-51
2024/01/15 17:02:55;;;;;;;1.08;0.98;;;18.80;37.70;;;;;;8328904;28;20283;-50
2024/01/15 17:06:56;;;;;;;0.93;0.77;;;18.90;37.40;;;;;;8328629;28;20476;-50
2024/01/15 17:10:56;;;;;;;0.82;0.77;;;19.00;37.20;;;;;;8328308;28;20354;-52
2024/01/15 17:14:57;;;;;;;0.73;0.70;;;19.00;37.00;;;;;;8328339;28;20029;-52
2024/01/15 17:18:58;;;;;;;0.82;0.80;;;19.10;36.90;;;;;;8328287;28;20037;-48
2024/01/15 17:22:58;;;;;;;0.88;0.85;;;19.10;36.80;;;;;;8328123;28;20038;-51
2024/01/15 17:26:59;;;;;;;0.80;0.80;;;19.10;36.70;;;;;;8328062;28;20037;-51
2024/01/15 17:31:00;;;;;;;1.13;0.93;;;19.10;36.60;;;;;;8327628;28;20095;-50
2024/01/15 17:35:01;;;;;;;0.80;0.80;;;19.10;36.50;;;;;;8327909;28;20028;-50
2024/01/15 17:39:01;;;;;;;0.85;0.80;;;19.10;37.30;;;;;;8326369;28;20041;-51
2024/01/15 17:43:02;;;;;;;1.20;1.08;;;18.80;38.10;;;;;;8327588;28;20487;-51
2024/01/15 17:47:03;;;;;;;0.63;0.60;;;18.80;38.00;;;;;;8327743;28;20037;-51
2024/01/15 17:51:04;;;;;;;0.77;0.73;;;18.90;37.60;;;;;;8327363;28;20079;-52
2024/01/15 17:55:05;;;;;;;0.80;0.80;;;18.90;37.30;;;;;;8326021;28;20039;-50
2024/01/15 17:59:06;;;;;;;0.80;0.60;;;19.00;37.10;;;;;;8327127;28;20030;-52
2024/01/15 18:03:07;;;;;;;0.80;0.80;;;19.00;37.00;;;;;;8327023;28;20483;-51
2024/01/15 18:07:07;;;;;;;0.70;0.70;;;19.00;36.80;;;;;;8326919;28;20407;-50
2024/01/15 18:11:16;;;;;;;0.93;0.93;;;19.10;36.70;;;;;;8326668;28;20299;-52
2024/01/15 18:15:17;;;;;;;1.05;0.90;;;19.10;36.60;;;;;;8326798;28;20021;-49
2024/01/15 18:19:18;;;;;;;0.77;0.70;;;19.10;36.60;;;;;;8326656;28;20045;-52
2024/01/15 18:23:19;;;;;;;1.05;0.80;;;19.10;36.50;;;;;;8326945;28;20038;-50
2024/01/15 18:27:19;;;;;;;0.93;0.60;;;18.90;37.50;;;;;;8326534;28;20506;-49
2024/01/15 18:31:20;;;;;;;0.77;0.73;;;18.70;38.20;;;;;;8326526;28;20053;-51
2024/01/15 18:35:23;;;;;;;0.95;0.73;;;18.80;38.00;;;;;;8326671;28;20041;-49
2024/01/15 18:39:24;;;;;;;0.77;0.77;;;18.80;37.60;;;;;;8326341;28;20029;-49
2024/01/15 18:43:24;;;;;;;0.82;0.80;;;18.90;37.30;;;;;;8326566;28;20026;-48
2024/01/15 18:47:25;;;;;;;1.00;0.90;;;19.00;37.20;;;;;;8326192;28;20723;-49
2024/01/15 18:51:26;;;;;;;0.80;0.70;;;18.90;37.00;;;;;;8326393;28;20339;-50
2024/01/15 18:55:27;;;;;;;0.90;0.75;;;19.00;37.00;;;;;;8326388;28;20030;-50
2024/01/15 18:59:30;;;;;;;0.90;0.90;;;19.00;36.80;;;;;;8326333;28;20048;-51
2024/01/15 19:03:31;;;;;;;0.90;0.90;;;19.00;36.70;;;;;;8326304;28;20171;-49
2024/01/15 19:07:33;;;;;;;0.77;0.60;;;19.10;36.60;;;;;;8326088;28;20055;-50
2024/01/15 19:11:33;;;;;;;0.85;0.70;;;19.10;36.50;;;;;;8328420;28;20382;-49
2024/01/15 19:15:34;;;;;;;0.73;0.73;;;19.00;37.60;;;;;;8332153;28;20026;-49
2024/01/15 19:19:36;;;;;;;0.63;0.60;;;18.80;38.10;;;;;;8332047;28;20042;-50
2024/01/15 19:23:37;;;;;;;0.60;0.60;;;18.90;37.80;;;;;;8332122;28;20479;-49
2024/01/15 19:27:43;;;;;;;0.83;0.80;;;18.90;37.50;;;;;;8331791;28;20064;-49
2024/01/15 19:31:43;;;;;;;0.68;0.65;;;19.00;37.20;;;;;;8331620;28;20279;-49
2024/01/15 19:35:44;;;;;;;0.97;0.80;;;19.00;37.00;;;;;;8330391;28;20033;-48
2024/01/15 19:39:45;;;;;;;0.70;0.70;;;19.00;36.90;;;;;;8332006;28;20830;-47
2024/01/15 19:43:46;;;;;;;0.63;0.60;;;19.10;36.80;;;;;;8331316;28;20604;-48
2024/01/15 19:47:47;;;;;;;1.00;0.88;;;19.10;36.70;;;;;;8331695;28;20284;-48
2024/01/15 19:51:48;;;;;;;1.00;0.90;;;19.10;36.60;;;;;;8331265;28;20030;-48
2024/01/15 19:55:49;;;;;;;1.20;1.00;;;19.10;36.60;;;;;;8330931;28;20038;-47
2024/01/15 19:59:53;;;;;;;1.08;0.98;;;19.10;36.50;;;;;;8330712;28;20063;-48
2024/01/15 20:03:53;;;;;;;0.90;0.73;;;18.90;37.60;;;;;;8330887;28;20049;-51
2024/01/15 20:07:54;;;;;;;0.60;0.60;;;18.70;38.20;;;;;;8330560;28;20124;-48
2024/01/15 20:11:55;;;;;;;1.08;0.90;;;18.80;37.80;;;;;;8330633;28;20137;-48
2024/01/15 20:15:56;;;;;;;0.75;0.75;;;18.90;37.40;;;;;;8329177;28;20041;-48
2024/01/15 20:19:56;;;;;;;0.70;0.70;;;19.00;37.20;;;;;;8330632;28;20483;-47
2024/01/15 20:23:57;;;;;;;0.88;0.80;;;19.00;37.00;;;;;;8329791;28;20045;-49
2024/01/15 20:27:58;;;;;;;1.00;0.80;;;19.10;36.90;;;;;;8329980;28;20095;-49
2024/01/15 20:31:58;;;;;;;0.80;0.60;;;19.10;36.80;;;;;;8329970;28;20028;-48
2024/01/15 20:36:00;;;;;;;1.07;0.70;;;19.10;36.70;;;;;;8329819;28;20057;-48
2024/01/15 20:40:03;;;;;;;0.90;0.70;;;19.10;36.60;;;;;;8329454;28;20533;-49
2024/01/15 20:44:04;;;;;;;0.82;0.70;;;19.10;36.50;;;;;;8329504;28;20502;-48
2024/01/15 20:48:05;;;;;;;0.93;0.80;;;19.10;36.60;;;;;;8328590;28;20033;-51
2024/01/15 20:52:06;;;;;;;0.65;0.65;;;18.90;37.70;;;;;;8329351;28;20036;-50
2024/01/15 20:56:07;;;;;;;0.98;0.95;;;18.70;38.10;;;;;;8329102;28;20064;-50